sensor_id;sensor_type;location;lat;lon;timestamp;P1;durP1;ratioP1;P2;durP2;ratioP2
27505;SDS011;14939;43.596;1.320;2022-12-18T00:01:17;16.38;;;12.40;;
27505;SDS011;14939;43.596;1.320;2022-12-18T00:03:46;27.67;;;16.67;;
27505;SDS011;14939;43.596;1.320;2022-12-18T00:06:12;19.13;;;14.10;;
27505;SDS011;14939;43.596;1.320;2022-12-18T00:08:39;20.40;;;12.55;;
27505;SDS011;14939;43.596;1.320;2022-12-18T00:11:06;21.40;;;14.68;;
27505;SDS011;14939;43.596;1.320;2022-12-18T00:13:33;17.88;;;12.98;;
27505;SDS011;14939;43.596;1.320;2022-12-18T00:16:03;19.15;;;13.98;;
27505;SDS011;14939;43.596;1.320;2022-12-18T00:18:32;20.73;;;13.27;;
27505;SDS011;14939;43.596;1.320;2022-12-18T00:20:58;21.90;;;13.57;;
27505;SDS011;14939;43.596;1.320;2022-12-18T00:23:25;21.73;;;14.50;;
27505;SDS011;14939;43.596;1.320;2022-12-18T00:25:51;24.25;;;15.90;;
27505;SDS011;14939;43.596;1.320;2022-12-18T00:28:17;22.17;;;15.07;;
27505;SDS011;14939;43.596;1.320;2022-12-18T00:30:43;25.35;;;15.80;;
27505;SDS011;14939;43.596;1.320;2022-12-18T00:33:08;25.00;;;16.15;;
27505;SDS011;14939;43.596;1.320;2022-12-18T00:35:34;26.42;;;17.33;;
27505;SDS011;14939;43.596;1.320;2022-12-18T00:38:00;25.35;;;17.20;;
27505;SDS011;14939;43.596;1.320;2022-12-18T00:40:25;28.88;;;17.98;;
27505;SDS011;14939;43.596;1.320;2022-12-18T00:42:51;25.08;;;16.17;;
27505;SDS011;14939;43.596;1.320;2022-12-18T00:45:23;24.42;;;15.90;;
27505;SDS011;14939;43.596;1.320;2022-12-18T00:47:53;20.58;;;14.52;;
27505;SDS011;14939;43.596;1.320;2022-12-18T00:50:19;20.48;;;13.27;;
27505;SDS011;14939;43.596;1.320;2022-12-18T00:52:45;24.67;;;14.50;;
27505;SDS011;14939;43.596;1.320;2022-12-18T00:55:11;20.20;;;13.20;;
27505;SDS011;14939;43.596;1.320;2022-12-18T00:57:37;19.30;;;12.60;;
27505;SDS011;14939;43.596;1.320;2022-12-18T01:00:04;21.95;;;13.23;;
27505;SDS011;14939;43.596;1.320;2022-12-18T01:02:31;24.15;;;14.75;;
27505;SDS011;14939;43.596;1.320;2022-12-18T01:04:56;19.08;;;13.70;;
27505;SDS011;14939;43.596;1.320;2022-12-18T01:07:22;23.23;;;15.13;;
27505;SDS011;14939;43.596;1.320;2022-12-18T01:09:48;23.27;;;13.43;;
27505;SDS011;14939;43.596;1.320;2022-12-18T01:12:14;22.88;;;14.27;;
27505;SDS011;14939;43.596;1.320;2022-12-18T01:14:39;21.90;;;14.77;;
27505;SDS011;14939;43.596;1.320;2022-12-18T01:17:05;23.55;;;15.18;;
27505;SDS011;14939;43.596;1.320;2022-12-18T01:19:31;23.98;;;14.43;;
27505;SDS011;14939;43.596;1.320;2022-12-18T01:21:57;23.33;;;14.68;;
27505;SDS011;14939;43.596;1.320;2022-12-18T01:24:22;23.05;;;14.45;;
27505;SDS011;14939;43.596;1.320;2022-12-18T01:26:48;24.63;;;14.52;;
27505;SDS011;14939;43.596;1.320;2022-12-18T01:29:14;23.77;;;15.38;;
27505;SDS011;14939;43.596;1.320;2022-12-18T01:31:40;25.15;;;15.27;;
27505;SDS011;14939;43.596;1.320;2022-12-18T01:34:06;23.15;;;14.05;;
27505;SDS011;14939;43.596;1.320;2022-12-18T01:36:32;24.30;;;14.77;;
27505;SDS011;14939;43.596;1.320;2022-12-18T01:39:00;24.70;;;15.38;;
27505;SDS011;14939;43.596;1.320;2022-12-18T01:41:28;23.75;;;15.00;;
27505;SDS011;14939;43.596;1.320;2022-12-18T01:47:22;27.50;;;15.68;;
27505;SDS011;14939;43.596;1.320;2022-12-18T01:49:49;25.38;;;14.85;;
27505;SDS011;14939;43.596;1.320;2022-12-18T01:52:15;24.63;;;15.23;;
27505;SDS011;14939;43.596;1.320;2022-12-18T01:54:42;25.40;;;15.00;;
27505;SDS011;14939;43.596;1.320;2022-12-18T01:57:09;24.85;;;15.05;;
27505;SDS011;14939;43.596;1.320;2022-12-18T01:59:36;26.10;;;15.93;;
27505;SDS011;14939;43.596;1.320;2022-12-18T02:02:03;27.02;;;16.02;;
27505;SDS011;14939;43.596;1.320;2022-12-18T02:04:29;23.38;;;14.70;;
27505;SDS011;14939;43.596;1.320;2022-12-18T02:07:14;26.50;;;15.75;;
27505;SDS011;14939;43.596;1.320;2022-12-18T02:10:00;23.85;;;15.13;;
27505;SDS011;14939;43.596;1.320;2022-12-18T02:12:45;24.85;;;15.20;;
27505;SDS011;14939;43.596;1.320;2022-12-18T02:18:07;29.40;;;17.02;;
27505;SDS011;14939;43.596;1.320;2022-12-18T02:20:46;27.85;;;16.73;;
27505;SDS011;14939;43.596;1.320;2022-12-18T02:26:18;29.65;;;17.45;;
27505;SDS011;14939;43.596;1.320;2022-12-18T02:29:12;30.38;;;16.65;;
27505;SDS011;14939;43.596;1.320;2022-12-18T02:31:45;32.63;;;18.20;;
27505;SDS011;14939;43.596;1.320;2022-12-18T02:34:17;32.83;;;18.35;;
27505;SDS011;14939;43.596;1.320;2022-12-18T02:36:45;32.58;;;17.17;;
27505;SDS011;14939;43.596;1.320;2022-12-18T02:39:12;34.80;;;18.92;;
27505;SDS011;14939;43.596;1.320;2022-12-18T02:41:42;42.60;;;20.95;;
27505;SDS011;14939;43.596;1.320;2022-12-18T02:44:10;36.03;;;20.13;;
27505;SDS011;14939;43.596;1.320;2022-12-18T02:49:05;45.05;;;23.02;;
27505;SDS011;14939;43.596;1.320;2022-12-18T02:51:51;40.40;;;22.80;;
27505;SDS011;14939;43.596;1.320;2022-12-18T02:57:05;41.65;;;22.83;;
27505;SDS011;14939;43.596;1.320;2022-12-18T02:59:45;39.13;;;21.63;;
27505;SDS011;14939;43.596;1.320;2022-12-18T03:02:41;43.90;;;22.80;;
27505;SDS011;14939;43.596;1.320;2022-12-18T03:05:15;40.13;;;21.38;;
27505;SDS011;14939;43.596;1.320;2022-12-18T03:10:51;43.17;;;21.55;;
27505;SDS011;14939;43.596;1.320;2022-12-18T03:13:34;41.40;;;22.42;;
27505;SDS011;14939;43.596;1.320;2022-12-18T03:16:05;44.03;;;24.98;;
27505;SDS011;14939;43.596;1.320;2022-12-18T03:21:26;43.63;;;24.08;;
27505;SDS011;14939;43.596;1.320;2022-12-18T03:23:57;54.38;;;28.58;;
27505;SDS011;14939;43.596;1.320;2022-12-18T03:26:24;71.47;;;34.75;;
27505;SDS011;14939;43.596;1.320;2022-12-18T03:29:03;81.32;;;40.05;;
27505;SDS011;14939;43.596;1.320;2022-12-18T03:31:33;90.78;;;44.13;;
27505;SDS011;14939;43.596;1.320;2022-12-18T03:34:02;86.65;;;40.58;;
27505;SDS011;14939;43.596;1.320;2022-12-18T03:38:59;86.20;;;37.15;;
27505;SDS011;14939;43.596;1.320;2022-12-18T03:44:13;71.97;;;34.58;;
27505;SDS011;14939;43.596;1.320;2022-12-18T03:50:20;77.05;;;31.15;;
27505;SDS011;14939;43.596;1.320;2022-12-18T03:55:25;63.50;;;25.88;;
27505;SDS011;14939;43.596;1.320;2022-12-18T03:57:55;67.60;;;25.42;;
27505;SDS011;14939;43.596;1.320;2022-12-18T04:00:22;51.28;;;25.30;;
27505;SDS011;14939;43.596;1.320;2022-12-18T04:02:52;53.25;;;24.23;;
27505;SDS011;14939;43.596;1.320;2022-12-18T04:05:20;49.90;;;24.33;;
27505;SDS011;14939;43.596;1.320;2022-12-18T04:07:47;49.78;;;23.50;;
27505;SDS011;14939;43.596;1.320;2022-12-18T04:10:16;50.92;;;23.27;;
27505;SDS011;14939;43.596;1.320;2022-12-18T04:12:43;46.30;;;24.00;;
27505;SDS011;14939;43.596;1.320;2022-12-18T04:15:09;53.10;;;25.00;;
27505;SDS011;14939;43.596;1.320;2022-12-18T04:17:35;48.13;;;25.23;;
27505;SDS011;14939;43.596;1.320;2022-12-18T04:20:02;48.70;;;28.15;;
27505;SDS011;14939;43.596;1.320;2022-12-18T04:22:28;47.45;;;28.10;;
27505;SDS011;14939;43.596;1.320;2022-12-18T04:24:54;43.55;;;25.05;;
27505;SDS011;14939;43.596;1.320;2022-12-18T04:27:19;51.05;;;23.95;;
27505;SDS011;14939;43.596;1.320;2022-12-18T04:29:45;44.42;;;23.20;;
27505;SDS011;14939;43.596;1.320;2022-12-18T04:32:11;49.42;;;23.30;;
27505;SDS011;14939;43.596;1.320;2022-12-18T04:34:37;44.28;;;21.55;;
27505;SDS011;14939;43.596;1.320;2022-12-18T04:37:02;41.63;;;22.05;;
27505;SDS011;14939;43.596;1.320;2022-12-18T04:39:28;45.08;;;21.10;;
27505;SDS011;14939;43.596;1.320;2022-12-18T04:41:54;38.22;;;20.08;;
27505;SDS011;14939;43.596;1.320;2022-12-18T04:44:20;41.25;;;20.23;;
27505;SDS011;14939;43.596;1.320;2022-12-18T04:46:45;44.65;;;20.27;;
27505;SDS011;14939;43.596;1.320;2022-12-18T04:49:11;40.22;;;19.83;;
27505;SDS011;14939;43.596;1.320;2022-12-18T04:51:37;47.75;;;21.52;;
27505;SDS011;14939;43.596;1.320;2022-12-18T04:54:03;38.45;;;20.02;;
27505;SDS011;14939;43.596;1.320;2022-12-18T04:56:30;38.70;;;19.27;;
27505;SDS011;14939;43.596;1.320;2022-12-18T04:58:57;42.33;;;20.17;;
27505;SDS011;14939;43.596;1.320;2022-12-18T05:01:22;40.75;;;20.48;;
27505;SDS011;14939;43.596;1.320;2022-12-18T05:03:48;40.30;;;20.90;;
27505;SDS011;14939;43.596;1.320;2022-12-18T05:06:15;41.45;;;19.25;;
27505;SDS011;14939;43.596;1.320;2022-12-18T05:08:44;43.15;;;21.25;;
27505;SDS011;14939;43.596;1.320;2022-12-18T05:11:14;42.10;;;20.88;;
27505;SDS011;14939;43.596;1.320;2022-12-18T05:13:40;42.88;;;22.63;;
27505;SDS011;14939;43.596;1.320;2022-12-18T05:16:07;47.17;;;23.48;;
27505;SDS011;14939;43.596;1.320;2022-12-18T05:18:33;40.47;;;20.83;;
27505;SDS011;14939;43.596;1.320;2022-12-18T05:20:59;42.25;;;21.13;;
27505;SDS011;14939;43.596;1.320;2022-12-18T05:23:25;47.58;;;22.38;;
27505;SDS011;14939;43.596;1.320;2022-12-18T05:25:52;43.20;;;21.98;;
27505;SDS011;14939;43.596;1.320;2022-12-18T05:28:20;44.78;;;23.60;;
27505;SDS011;14939;43.596;1.320;2022-12-18T05:30:53;44.13;;;22.25;;
27505;SDS011;14939;43.596;1.320;2022-12-18T05:33:20;41.78;;;22.00;;
27505;SDS011;14939;43.596;1.320;2022-12-18T05:35:51;46.72;;;22.92;;
27505;SDS011;14939;43.596;1.320;2022-12-18T05:38:21;42.97;;;22.02;;
27505;SDS011;14939;43.596;1.320;2022-12-18T05:40:49;41.92;;;21.55;;
27505;SDS011;14939;43.596;1.320;2022-12-18T05:43:15;40.58;;;21.05;;
27505;SDS011;14939;43.596;1.320;2022-12-18T05:45:41;39.60;;;20.83;;
27505;SDS011;14939;43.596;1.320;2022-12-18T05:48:07;40.08;;;20.98;;
27505;SDS011;14939;43.596;1.320;2022-12-18T05:50:38;41.38;;;21.83;;
27505;SDS011;14939;43.596;1.320;2022-12-18T05:53:06;43.83;;;21.23;;
27505;SDS011;14939;43.596;1.320;2022-12-18T05:55:33;42.90;;;22.23;;
27505;SDS011;14939;43.596;1.320;2022-12-18T05:58:00;41.00;;;25.00;;
27505;SDS011;14939;43.596;1.320;2022-12-18T06:00:26;47.28;;;27.23;;
27505;SDS011;14939;43.596;1.320;2022-12-18T06:02:52;41.65;;;25.17;;
27505;SDS011;14939;43.596;1.320;2022-12-18T06:05:18;39.67;;;22.67;;
27505;SDS011;14939;43.596;1.320;2022-12-18T06:07:43;42.03;;;24.45;;
27505;SDS011;14939;43.596;1.320;2022-12-18T06:10:09;41.85;;;23.08;;
27505;SDS011;14939;43.596;1.320;2022-12-18T06:12:35;42.67;;;23.02;;
27505;SDS011;14939;43.596;1.320;2022-12-18T06:15:01;39.83;;;21.67;;
27505;SDS011;14939;43.596;1.320;2022-12-18T06:17:28;45.13;;;26.92;;
27505;SDS011;14939;43.596;1.320;2022-12-18T06:19:57;41.33;;;25.15;;
27505;SDS011;14939;43.596;1.320;2022-12-18T06:22:23;41.92;;;24.83;;
27505;SDS011;14939;43.596;1.320;2022-12-18T06:24:49;40.42;;;23.25;;
27505;SDS011;14939;43.596;1.320;2022-12-18T06:27:15;44.65;;;24.95;;
27505;SDS011;14939;43.596;1.320;2022-12-18T06:29:41;44.67;;;23.63;;
27505;SDS011;14939;43.596;1.320;2022-12-18T06:32:07;44.08;;;24.48;;
27505;SDS011;14939;43.596;1.320;2022-12-18T06:34:33;47.20;;;24.40;;
27505;SDS011;14939;43.596;1.320;2022-12-18T06:36:59;41.25;;;23.55;;
27505;SDS011;14939;43.596;1.320;2022-12-18T06:39:28;42.13;;;24.23;;
27505;SDS011;14939;43.596;1.320;2022-12-18T06:41:54;46.22;;;25.13;;
27505;SDS011;14939;43.596;1.320;2022-12-18T06:44:20;49.35;;;26.15;;
27505;SDS011;14939;43.596;1.320;2022-12-18T06:46:45;49.40;;;25.58;;
27505;SDS011;14939;43.596;1.320;2022-12-18T06:49:11;47.20;;;25.98;;
27505;SDS011;14939;43.596;1.320;2022-12-18T06:51:37;50.78;;;25.92;;
27505;SDS011;14939;43.596;1.320;2022-12-18T06:57:15;48.08;;;26.73;;
27505;SDS011;14939;43.596;1.320;2022-12-18T06:59:41;48.50;;;28.02;;
27505;SDS011;14939;43.596;1.320;2022-12-18T07:02:10;43.30;;;26.58;;
27505;SDS011;14939;43.596;1.320;2022-12-18T07:04:36;44.50;;;26.60;;
27505;SDS011;14939;43.596;1.320;2022-12-18T07:07:02;45.25;;;24.90;;
27505;SDS011;14939;43.596;1.320;2022-12-18T07:09:28;47.13;;;24.88;;
27505;SDS011;14939;43.596;1.320;2022-12-18T07:11:54;45.30;;;25.20;;
27505;SDS011;14939;43.596;1.320;2022-12-18T07:14:19;48.95;;;25.70;;
27505;SDS011;14939;43.596;1.320;2022-12-18T07:16:46;45.85;;;23.73;;
27505;SDS011;14939;43.596;1.320;2022-12-18T07:19:11;42.30;;;23.65;;
27505;SDS011;14939;43.596;1.320;2022-12-18T07:21:37;46.78;;;24.70;;
27505;SDS011;14939;43.596;1.320;2022-12-18T07:24:03;46.78;;;23.92;;
27505;SDS011;14939;43.596;1.320;2022-12-18T07:26:29;47.35;;;24.50;;
27505;SDS011;14939;43.596;1.320;2022-12-18T07:28:57;46.70;;;25.08;;
27505;SDS011;14939;43.596;1.320;2022-12-18T07:31:23;47.65;;;23.90;;
27505;SDS011;14939;43.596;1.320;2022-12-18T07:33:50;46.03;;;24.10;;
27505;SDS011;14939;43.596;1.320;2022-12-18T07:36:16;43.08;;;24.48;;
27505;SDS011;14939;43.596;1.320;2022-12-18T07:38:42;45.33;;;25.35;;
27505;SDS011;14939;43.596;1.320;2022-12-18T07:41:11;46.55;;;24.25;;
27505;SDS011;14939;43.596;1.320;2022-12-18T07:43:38;46.28;;;23.30;;
27505;SDS011;14939;43.596;1.320;2022-12-18T07:46:05;44.83;;;24.02;;
27505;SDS011;14939;43.596;1.320;2022-12-18T07:48:31;42.95;;;23.02;;
27505;SDS011;14939;43.596;1.320;2022-12-18T07:51:04;46.95;;;25.38;;
27505;SDS011;14939;43.596;1.320;2022-12-18T07:53:31;48.53;;;25.30;;
27505;SDS011;14939;43.596;1.320;2022-12-18T07:55:58;48.88;;;26.88;;
27505;SDS011;14939;43.596;1.320;2022-12-18T07:58:25;48.63;;;26.95;;
27505;SDS011;14939;43.596;1.320;2022-12-18T08:00:51;49.85;;;25.10;;
27505;SDS011;14939;43.596;1.320;2022-12-18T08:03:17;50.72;;;26.40;;
27505;SDS011;14939;43.596;1.320;2022-12-18T08:05:44;48.03;;;26.17;;
27505;SDS011;14939;43.596;1.320;2022-12-18T08:08:10;53.30;;;27.02;;
27505;SDS011;14939;43.596;1.320;2022-12-18T08:10:35;57.55;;;29.38;;
27505;SDS011;14939;43.596;1.320;2022-12-18T08:13:02;53.78;;;28.42;;
27505;SDS011;14939;43.596;1.320;2022-12-18T08:15:28;44.38;;;25.48;;
27505;SDS011;14939;43.596;1.320;2022-12-18T08:17:56;50.55;;;26.63;;
27505;SDS011;14939;43.596;1.320;2022-12-18T08:20:22;47.03;;;24.73;;
27505;SDS011;14939;43.596;1.320;2022-12-18T08:22:48;40.53;;;21.35;;
27505;SDS011;14939;43.596;1.320;2022-12-18T08:25:14;41.30;;;21.48;;
27505;SDS011;14939;43.596;1.320;2022-12-18T08:27:39;38.95;;;20.77;;
27505;SDS011;14939;43.596;1.320;2022-12-18T08:30:05;40.33;;;19.83;;
27505;SDS011;14939;43.596;1.320;2022-12-18T08:32:31;34.78;;;18.63;;
27505;SDS011;14939;43.596;1.320;2022-12-18T08:34:58;33.88;;;18.23;;
27505;SDS011;14939;43.596;1.320;2022-12-18T08:37:24;30.25;;;17.33;;
27505;SDS011;14939;43.596;1.320;2022-12-18T08:39:50;31.27;;;18.20;;
27505;SDS011;14939;43.596;1.320;2022-12-18T08:42:15;30.45;;;16.05;;
27505;SDS011;14939;43.596;1.320;2022-12-18T08:45:00;27.58;;;15.93;;
27505;SDS011;14939;43.596;1.320;2022-12-18T08:47:26;28.10;;;15.52;;
27505;SDS011;14939;43.596;1.320;2022-12-18T08:49:52;25.83;;;14.73;;
27505;SDS011;14939;43.596;1.320;2022-12-18T08:52:18;24.77;;;14.98;;
27505;SDS011;14939;43.596;1.320;2022-12-18T08:54:43;24.88;;;13.25;;
27505;SDS011;14939;43.596;1.320;2022-12-18T08:57:09;22.40;;;12.40;;
27505;SDS011;14939;43.596;1.320;2022-12-18T08:59:35;18.63;;;12.45;;
27505;SDS011;14939;43.596;1.320;2022-12-18T09:02:00;20.40;;;11.95;;
27505;SDS011;14939;43.596;1.320;2022-12-18T09:04:26;20.50;;;11.70;;
27505;SDS011;14939;43.596;1.320;2022-12-18T09:06:52;16.90;;;11.13;;
27505;SDS011;14939;43.596;1.320;2022-12-18T09:09:20;16.70;;;11.02;;
27505;SDS011;14939;43.596;1.320;2022-12-18T09:11:46;16.38;;;10.80;;
27505;SDS011;14939;43.596;1.320;2022-12-18T09:14:20;16.95;;;10.65;;
27505;SDS011;14939;43.596;1.320;2022-12-18T09:17:07;15.85;;;10.30;;
27505;SDS011;14939;43.596;1.320;2022-12-18T09:19:32;15.07;;;9.88;;
27505;SDS011;14939;43.596;1.320;2022-12-18T09:21:58;18.88;;;10.55;;
27505;SDS011;14939;43.596;1.320;2022-12-18T09:24:27;14.43;;;9.35;;
27505;SDS011;14939;43.596;1.320;2022-12-18T09:26:55;17.60;;;9.73;;
27505;SDS011;14939;43.596;1.320;2022-12-18T09:29:21;15.38;;;9.98;;
27505;SDS011;14939;43.596;1.320;2022-12-18T09:31:47;14.85;;;9.75;;
27505;SDS011;14939;43.596;1.320;2022-12-18T09:34:13;21.80;;;9.65;;
27505;SDS011;14939;43.596;1.320;2022-12-18T09:36:38;14.95;;;9.85;;
27505;SDS011;14939;43.596;1.320;2022-12-18T09:39:04;14.40;;;9.82;;
27505;SDS011;14939;43.596;1.320;2022-12-18T09:41:35;14.30;;;8.93;;
27505;SDS011;14939;43.596;1.320;2022-12-18T09:47:03;15.48;;;10.02;;
27505;SDS011;14939;43.596;1.320;2022-12-18T09:49:43;14.77;;;9.70;;
27505;SDS011;14939;43.596;1.320;2022-12-18T09:55:08;14.80;;;9.02;;
27505;SDS011;14939;43.596;1.320;2022-12-18T09:57:50;15.45;;;8.77;;
27505;SDS011;14939;43.596;1.320;2022-12-18T10:00:22;13.10;;;8.50;;
27505;SDS011;14939;43.596;1.320;2022-12-18T10:02:51;15.05;;;9.13;;
27505;SDS011;14939;43.596;1.320;2022-12-18T10:05:33;11.80;;;8.63;;
27505;SDS011;14939;43.596;1.320;2022-12-18T10:08:15;13.52;;;8.35;;
27505;SDS011;14939;43.596;1.320;2022-12-18T10:10:53;13.77;;;8.07;;
27505;SDS011;14939;43.596;1.320;2022-12-18T10:13:27;12.30;;;8.00;;
27505;SDS011;14939;43.596;1.320;2022-12-18T10:16:01;12.48;;;8.52;;
27505;SDS011;14939;43.596;1.320;2022-12-18T10:21:30;12.20;;;8.00;;
27505;SDS011;14939;43.596;1.320;2022-12-18T10:27:15;11.60;;;7.28;;
27505;SDS011;14939;43.596;1.320;2022-12-18T10:29:44;14.60;;;7.35;;
27505;SDS011;14939;43.596;1.320;2022-12-18T10:32:23;11.13;;;6.93;;
27505;SDS011;14939;43.596;1.320;2022-12-18T10:34:51;12.52;;;6.88;;
27505;SDS011;14939;43.596;1.320;2022-12-18T10:37:20;9.70;;;6.60;;
27505;SDS011;14939;43.596;1.320;2022-12-18T10:40:04;13.60;;;6.85;;
27505;SDS011;14939;43.596;1.320;2022-12-18T10:42:33;9.60;;;6.43;;
27505;SDS011;14939;43.596;1.320;2022-12-18T10:45:05;10.15;;;6.47;;
27505;SDS011;14939;43.596;1.320;2022-12-18T10:47:36;10.25;;;5.97;;
27505;SDS011;14939;43.596;1.320;2022-12-18T10:50:26;9.07;;;6.00;;
27505;SDS011;14939;43.596;1.320;2022-12-18T10:52:59;10.10;;;6.28;;
27505;SDS011;14939;43.596;1.320;2022-12-18T10:55:33;8.48;;;5.90;;
27505;SDS011;14939;43.596;1.320;2022-12-18T11:01:13;9.45;;;5.43;;
27505;SDS011;14939;43.596;1.320;2022-12-18T11:03:42;8.70;;;5.90;;
27505;SDS011;14939;43.596;1.320;2022-12-18T11:06:10;8.88;;;5.75;;
27505;SDS011;14939;43.596;1.320;2022-12-18T11:08:44;9.50;;;5.55;;
27505;SDS011;14939;43.596;1.320;2022-12-18T11:11:42;7.82;;;5.65;;
27505;SDS011;14939;43.596;1.320;2022-12-18T11:14:24;8.45;;;5.97;;
27505;SDS011;14939;43.596;1.320;2022-12-18T11:17:18;7.22;;;5.30;;
27505;SDS011;14939;43.596;1.320;2022-12-18T11:19:45;7.75;;;5.55;;
27505;SDS011;14939;43.596;1.320;2022-12-18T11:22:31;9.73;;;5.43;;
27505;SDS011;14939;43.596;1.320;2022-12-18T11:25:04;9.00;;;5.55;;
27505;SDS011;14939;43.596;1.320;2022-12-18T11:27:36;8.30;;;5.57;;
27505;SDS011;14939;43.596;1.320;2022-12-18T11:30:20;7.88;;;5.75;;
27505;SDS011;14939;43.596;1.320;2022-12-18T11:32:49;8.50;;;5.35;;
27505;SDS011;14939;43.596;1.320;2022-12-18T11:38:32;6.57;;;5.18;;
27505;SDS011;14939;43.596;1.320;2022-12-18T11:43:32;7.55;;;5.68;;
27505;SDS011;14939;43.596;1.320;2022-12-18T11:51:53;8.95;;;5.25;;
27505;SDS011;14939;43.596;1.320;2022-12-18T11:54:40;11.90;;;5.90;;
27505;SDS011;14939;43.596;1.320;2022-12-18T12:05:57;6.72;;;4.85;;
27505;SDS011;14939;43.596;1.320;2022-12-18T12:08:12;8.50;;;4.90;;
27505;SDS011;14939;43.596;1.320;2022-12-18T12:24:49;10.82;;;5.75;;
27505;SDS011;14939;43.596;1.320;2022-12-18T12:35:44;10.32;;;6.00;;
27505;SDS011;14939;43.596;1.320;2022-12-18T12:38:21;11.15;;;6.25;;
27505;SDS011;14939;43.596;1.320;2022-12-18T12:41:06;7.40;;;5.20;;
27505;SDS011;14939;43.596;1.320;2022-12-18T12:43:55;7.72;;;5.80;;
27505;SDS011;14939;43.596;1.320;2022-12-18T12:46:23;9.57;;;6.30;;
27505;SDS011;14939;43.596;1.320;2022-12-18T12:49:03;12.32;;;6.55;;
27505;SDS011;14939;43.596;1.320;2022-12-18T12:51:35;8.73;;;6.63;;
27505;SDS011;14939;43.596;1.320;2022-12-18T12:54:06;9.50;;;6.68;;
27505;SDS011;14939;43.596;1.320;2022-12-18T12:56:45;9.20;;;6.20;;
27505;SDS011;14939;43.596;1.320;2022-12-18T12:59:31;8.85;;;6.97;;
27505;SDS011;14939;43.596;1.320;2022-12-18T13:07:41;14.98;;;6.70;;
27505;SDS011;14939;43.596;1.320;2022-12-18T13:10:31;13.88;;;6.68;;
27505;SDS011;14939;43.596;1.320;2022-12-18T13:12:59;11.27;;;6.88;;
27505;SDS011;14939;43.596;1.320;2022-12-18T13:15:31;8.10;;;6.32;;
27505;SDS011;14939;43.596;1.320;2022-12-18T13:18:10;10.30;;;6.95;;
27505;SDS011;14939;43.596;1.320;2022-12-18T13:20:47;12.88;;;7.07;;
27505;SDS011;14939;43.596;1.320;2022-12-18T13:25:54;12.82;;;6.93;;
27505;SDS011;14939;43.596;1.320;2022-12-18T13:28:26;12.00;;;7.35;;
27505;SDS011;14939;43.596;1.320;2022-12-18T13:31:15;14.52;;;7.47;;
27505;SDS011;14939;43.596;1.320;2022-12-18T13:34:22;11.40;;;7.32;;
27505;SDS011;14939;43.596;1.320;2022-12-18T13:36:51;10.30;;;7.47;;
27505;SDS011;14939;43.596;1.320;2022-12-18T13:42:37;8.98;;;6.63;;
27505;SDS011;14939;43.596;1.320;2022-12-18T13:44:37;9.43;;;7.28;;
27505;SDS011;14939;43.596;1.320;2022-12-18T13:47:27;14.65;;;7.20;;
27505;SDS011;14939;43.596;1.320;2022-12-18T13:49:58;12.40;;;7.43;;
27505;SDS011;14939;43.596;1.320;2022-12-18T13:52:25;10.13;;;7.30;;
27505;SDS011;14939;43.596;1.320;2022-12-18T13:55:04;10.73;;;7.68;;
27505;SDS011;14939;43.596;1.320;2022-12-18T13:57:37;11.55;;;7.78;;
27505;SDS011;14939;43.596;1.320;2022-12-18T14:03:15;10.80;;;8.20;;
27505;SDS011;14939;43.596;1.320;2022-12-18T14:06:01;10.98;;;7.85;;
27505;SDS011;14939;43.596;1.320;2022-12-18T14:08:32;10.93;;;7.93;;
27505;SDS011;14939;43.596;1.320;2022-12-18T14:11:04;13.50;;;7.68;;
27505;SDS011;14939;43.596;1.320;2022-12-18T14:13:33;9.18;;;7.40;;
27505;SDS011;14939;43.596;1.320;2022-12-18T14:16:04;10.55;;;7.60;;
27505;SDS011;14939;43.596;1.320;2022-12-18T14:18:42;10.70;;;7.90;;
27505;SDS011;14939;43.596;1.320;2022-12-18T14:21:26;12.45;;;7.20;;
27505;SDS011;14939;43.596;1.320;2022-12-18T14:24:04;11.68;;;7.70;;
27505;SDS011;14939;43.596;1.320;2022-12-18T14:26:33;10.50;;;7.28;;
27505;SDS011;14939;43.596;1.320;2022-12-18T14:29:00;10.70;;;7.10;;
27505;SDS011;14939;43.596;1.320;2022-12-18T14:31:42;11.45;;;7.03;;
27505;SDS011;14939;43.596;1.320;2022-12-18T14:34:14;10.82;;;7.28;;
27505;SDS011;14939;43.596;1.320;2022-12-18T14:36:53;12.63;;;7.43;;
27505;SDS011;14939;43.596;1.320;2022-12-18T14:39:20;12.10;;;7.30;;
27505;SDS011;14939;43.596;1.320;2022-12-18T14:41:48;10.30;;;7.43;;
27505;SDS011;14939;43.596;1.320;2022-12-18T14:44:14;12.23;;;7.10;;
27505;SDS011;14939;43.596;1.320;2022-12-18T14:46:41;10.25;;;7.20;;
27505;SDS011;14939;43.596;1.320;2022-12-18T14:49:19;12.85;;;7.35;;
27505;SDS011;14939;43.596;1.320;2022-12-18T14:51:59;13.55;;;7.60;;
27505;SDS011;14939;43.596;1.320;2022-12-18T14:54:27;11.65;;;7.43;;
27505;SDS011;14939;43.596;1.320;2022-12-18T14:56:59;13.90;;;8.52;;
27505;SDS011;14939;43.596;1.320;2022-12-18T14:59:28;13.10;;;7.63;;
27505;SDS011;14939;43.596;1.320;2022-12-18T15:04:59;10.55;;;7.15;;
27505;SDS011;14939;43.596;1.320;2022-12-18T15:07:39;11.75;;;7.57;;
27505;SDS011;14939;43.596;1.320;2022-12-18T15:10:14;12.20;;;7.85;;
27505;SDS011;14939;43.596;1.320;2022-12-18T15:12:44;11.60;;;7.95;;
27505;SDS011;14939;43.596;1.320;2022-12-18T15:17:58;13.02;;;7.72;;
27505;SDS011;14939;43.596;1.320;2022-12-18T15:20:56;12.23;;;7.35;;
27505;SDS011;14939;43.596;1.320;2022-12-18T15:23:26;13.43;;;7.32;;
27505;SDS011;14939;43.596;1.320;2022-12-18T15:26:17;11.35;;;7.90;;
27505;SDS011;14939;43.596;1.320;2022-12-18T15:28:45;13.05;;;7.60;;
27505;SDS011;14939;43.596;1.320;2022-12-18T15:33:47;11.65;;;7.90;;
27505;SDS011;14939;43.596;1.320;2022-12-18T15:36:28;12.43;;;7.10;;
27505;SDS011;14939;43.596;1.320;2022-12-18T15:38:55;11.13;;;8.38;;
27505;SDS011;14939;43.596;1.320;2022-12-18T15:41:22;12.13;;;8.50;;
27505;SDS011;14939;43.596;1.320;2022-12-18T15:43:49;15.20;;;8.30;;
27505;SDS011;14939;43.596;1.320;2022-12-18T15:46:17;12.10;;;8.20;;
27505;SDS011;14939;43.596;1.320;2022-12-18T15:48:48;11.48;;;7.82;;
27505;SDS011;14939;43.596;1.320;2022-12-18T15:54:02;16.13;;;9.30;;
27505;SDS011;14939;43.596;1.320;2022-12-18T15:56:30;11.80;;;8.95;;
27505;SDS011;14939;43.596;1.320;2022-12-18T15:59:15;13.45;;;7.95;;
27505;SDS011;14939;43.596;1.320;2022-12-18T16:01:44;17.50;;;8.23;;
27505;SDS011;14939;43.596;1.320;2022-12-18T16:04:12;14.82;;;8.85;;
27505;SDS011;14939;43.596;1.320;2022-12-18T16:06:39;15.35;;;8.57;;
27505;SDS011;14939;43.596;1.320;2022-12-18T16:09:05;13.88;;;8.23;;
27505;SDS011;14939;43.596;1.320;2022-12-18T16:11:32;13.90;;;8.63;;
27505;SDS011;14939;43.596;1.320;2022-12-18T16:14:15;15.35;;;8.70;;
27505;SDS011;14939;43.596;1.320;2022-12-18T16:16:50;16.55;;;9.23;;
27505;SDS011;14939;43.596;1.320;2022-12-18T16:19:17;14.32;;;9.35;;
27505;SDS011;14939;43.596;1.320;2022-12-18T16:21:43;20.33;;;9.40;;
27505;SDS011;14939;43.596;1.320;2022-12-18T16:24:17;16.58;;;9.32;;
27505;SDS011;14939;43.596;1.320;2022-12-18T16:26:47;15.50;;;9.73;;
27505;SDS011;14939;43.596;1.320;2022-12-18T16:29:14;21.33;;;10.45;;
27505;SDS011;14939;43.596;1.320;2022-12-18T16:31:40;15.65;;;9.25;;
27505;SDS011;14939;43.596;1.320;2022-12-18T16:36:55;19.38;;;10.45;;
27505;SDS011;14939;43.596;1.320;2022-12-18T16:39:22;16.58;;;10.05;;
27505;SDS011;14939;43.596;1.320;2022-12-18T16:41:47;15.88;;;10.10;;
27505;SDS011;14939;43.596;1.320;2022-12-18T16:44:14;22.58;;;11.60;;
27505;SDS011;14939;43.596;1.320;2022-12-18T16:46:40;20.00;;;11.32;;